Latest Coastal Weather Observations for Samuel Hill

IDQ60701

Issued at 10:22 pm EST Monday 26 January 2015 (issued every 10 minutes, with the page automatically refreshed every 10 minutes)

About coastal observations | Map of coastal stations | Coastal observations for QLD | Marine services | Other Formats
Station Details ID: 033308 Name: SAMUEL HILL AERO Lat: -22.74 Lon: 150.66 Height: 31.0 m
Data from the previous 72 hours. | See also: Recent months at Samuel Hill
Date/Time
EST
Temp

°C
Wind Pressure Rain
since 9am
mm
Weather Cloud Vis
km
Sea
Height
m
Swell
Dir
 
Speed
knots
Gust
knots
hPa Trend Height
m
Period
s
Dir
26/10:00pm 25.8 CALM 0 0 1004.8 - 4.0 - - 10 - - - -
26/09:30pm 25.9 CALM 0 0 1004.4 - 4.0 - - 10 - - - -
26/09:00pm 26.3 CALM 0 0 1004.4 - 4.0 - - 10 - - - -
26/08:30pm 26.7 CALM 0 0 1004.2 - 4.0 - - 10 - - - -
26/08:00pm 26.9 CALM 0 0 1004.1 - 4.0 - - 10 - - - -
26/07:30pm 27.4 CALM 0 2 1004.1 - 4.0 - - 10 - - - -
26/07:00pm 27.8 NE 1 3 1004.0 - 4.0 - - 10 - - - -
26/06:30pm 28.5 ENE 2 5 1003.8 - 4.0 - - 10 - - - -
26/06:00pm 28.9 E 4 6 1003.1 - 4.0 - Mostly clear 10 - - - -
26/05:30pm 29.5 ENE 4 6 1003.2 - 4.0 - - 10 - - - -
26/05:00pm 29.8 NE 5 8 1002.5 - 4.0 - - 10 - - - -
26/04:30pm 30.6 NE 5 9 1002.5 - 4.0 - - 10 - - - -
26/04:00pm 30.4 NE 5 7 1002.6 - 4.0 - - 10 - - - -
26/03:30pm 29.6 NNE 5 8 1002.5 - 4.0 - - 10 - - - -
26/03:00pm 28.6 NE 2 5 1003.4 - 4.0 - Partly cloudy 10 - - - -
26/02:30pm 27.7 NE 4 6 1003.2 - 4.0 - - 10 - - - -
26/02:00pm 25.0 CALM 0 4 1003.9 - 4.0 - Partly cloudy 10 - - - -
26/01:57pm 25.1 SW 1 6 1003.7 - 4.0 - Partly cloudy 10 - - - -
26/01:30pm 24.9 NW 7 10 1004.0 - 3.0 - Partly cloudy 5 - - - -
26/01:17pm 25.5 NW 7 11 1003.8 - 1.6 - Partly cloudy 7 - - - -
26/01:00pm 27.8 N 4 12 1003.6 - 1.0 - Partly cloudy 10 - - - -
26/12:52pm 28.7 N 5 9 1003.4 - 1.0 - Partly cloudy 10 - - - -
26/12:30pm 29.8 NE 7 10 1003.5 - 0.8 - Partly cloudy 3 - - - -
26/12:28pm 29.9 ENE 7 10 1003.6 - 0.6 - Partly cloudy 5 - - - -
26/12:00pm 32.6 E 7 12 1003.6 - 0.0 - Cloudy 10 - - - -
26/11:30am 33.6 SE 6 9 1003.7 - 0.0 - Partly cloudy 10 - - - -
26/11:00am 33.1 SSW 5 8 1004.1 - 0.0 - Partly cloudy 10 - - - -
26/10:30am 33.3 WNW 3 6 1004.5 - 0.0 - Partly cloudy 10 - - - -
26/10:00am 32.3 SW 4 7 1004.8 - 0.0 - - 10 - - - -
26/09:30am 31.7 SSW 5 7 1004.8 - 0.0 - Partly cloudy 10 - - - -
26/09:00am 31.1 SSE 4 6 1005.2 - 0.0 - Mostly clear 10 - - - -
26/08:30am 30.8 S 1 3 1005.4 - 0.0 - Partly cloudy 10 - - - -
26/08:00am 29.6 NW 3 5 1005.2 - 0.0 - - 10 - - - -
26/07:30am 28.3 NNW 1 3 1005.3 - 0.0 - Partly cloudy 10 - - - -
26/07:00am 27.6 WNW 1 4 1005.5 - 0.0 - - 10 - - - -
26/06:30am 26.3 CALM 0 0 1005.4 - 0.0 - - 10 - - - -
26/06:00am 25.3 W 1 4 1005.1 - 0.0 - - 10 - - - -
26/05:30am 25.0 CALM 0 0 1004.8 - 0.0 - - 10 - - - -
26/05:00am 25.3 CALM 0 3 1004.7 - 0.0 - - 10 - - - -
26/04:30am 25.4 CALM 0 3 1004.4 - 0.0 - - 10 - - - -
26/04:00am 25.5 CALM 0 0 1004.3 - 0.0 - - 10 - - - -
26/03:30am 25.7 CALM 0 0 1004.1 - 0.0 - - 10 - - - -
26/03:00am 25.9 CALM 0 0 1004.4 - 0.0 - Mostly clear 10 - - - -
26/02:30am 26.2 CALM 0 0 1004.6 - 0.0 - Partly cloudy 10 - - - -
26/02:00am 26.1 SE 1 4 1004.7 - 0.0 - Partly cloudy 10 - - - -
26/01:30am 26.2 CALM 0 0 1004.3 - 0.0 - - 10 - - - -
26/01:00am 26.2 ESE 3 4 1004.5 - 0.0 - Partly cloudy 10 - - - -
26/12:30am 26.3 SE 1 4 1004.9 - 0.0 - - 10 - - - -
26/12:00am 26.7 CALM 0 0 1004.9 - 0.0 - - 22 - - - -
 
Date/Time
EST
Temp

°C
Wind Pressure Rain
since 9am
mm
Weather Cloud Vis
km
Sea
Height
m
Swell
Dir
 
Speed
knots
Gust
knots
hPa Trend Height
m
Period
s
Dir
25/11:30pm 27.2 CALM 0 0 1005.6 - 0.0 - - 10 - - - -
25/11:00pm 27.7 CALM 0 3 1006.0 - 0.0 - Partly cloudy 10 - - - -
25/10:30pm 27.6 NNW 1 4 1006.1 - 0.0 - - 10 - - - -
25/10:00pm 28.1 W 3 5 1006.2 - 0.0 - Partly cloudy 10 - - - -
25/09:30pm 28.2 NNW 6 9 1005.9 - 0.0 - Partly cloudy 10 - - - -
25/09:00pm 28.4 WNW 4 6 1006.5 - 0.0 - Cloudy 10 - - - -
25/08:30pm 28.4 NW 5 8 1005.4 - 0.0 - - 10 - - - -
25/08:00pm 28.7 NNW 7 12 1004.5 - 0.0 - - 10 - - - -
25/07:30pm 28.9 NNW 8 13 1004.9 - 0.0 - - 10 - - - -
25/07:00pm 29.4 NW 3 5 1004.8 - 0.0 - - 10 - - - -
25/06:30pm 29.9 NNW 6 9 1004.2 - 0.0 - - 10 - - - -
25/06:00pm 30.6 N 7 10 1003.6 - 0.0 - Partly cloudy 10 - - - -
25/05:30pm 31.3 N 7 9 1003.0 - 0.0 - - 10 - - - -
25/05:00pm 32.7 NNE 7 11 1002.5 - 0.0 - - 10 - - - -
25/04:30pm 32.2 NNE 9 13 1002.2 - 0.0 - - 10 - - - -
25/04:00pm 34.2 NE 9 12 1002.4 - 0.0 - - 10 - - - -
25/03:30pm 34.2 ENE 10 14 1002.6 - 0.0 - - 10 - - - -
25/03:00pm 36.3 ESE 2 5 1003.0 - 0.0 - - 10 - - - -
25/02:30pm 36.0 SW 6 9 1003.2 - 0.0 - Partly cloudy 10 - - - -
25/02:00pm 36.2 SSW 7 11 1003.6 - 0.0 - - 10 - - - -
25/01:30pm 35.7 SSW 9 13 1003.9 - 0.0 - - 10 - - - -
25/01:00pm 35.8 SSW 8 13 1004.0 - 0.0 - - 10 - - - -
25/12:30pm 34.8 SSW 8 11 1004.3 - 0.0 - Partly cloudy 10 - - - -
25/12:00pm 35.0 WSW 7 12 1004.7 - 0.0 - - 10 - - - -
25/11:30am 34.3 W 7 12 1005.3 - 0.0 - - 10 - - - -
25/11:00am 34.2 WNW 7 13 1005.8 - 0.0 - - 10 - - - -
25/10:30am 33.9 WNW 7 10 1006.2 - 0.0 - - 10 - - - -
25/10:00am 33.0 WNW 6 8 1006.6 - 0.0 - - 10 - - - -
25/09:30am 32.1 W 7 12 1006.8 - 0.0 - - 10 - - - -
25/09:00am 31.5 WNW 6 11 1006.9 - 5.6 - - 10 - - - -
25/08:30am 30.6 WNW 4 7 1007.1 - 5.6 - - 10 - - - -
25/08:00am 29.6 NW 4 6 1007.1 - 5.6 - - 10 - - - -
25/07:30am 28.9 NW 7 10 1007.1 - 5.6 - - 10 - - - -
25/07:00am 28.7 NW 4 8 1007.0 - 5.6 - - 10 - - - -
25/06:30am 26.6 CALM 0 0 1006.8 - 5.6 - - 8 - - - -
25/06:10am 25.6 CALM 0 0 1006.6 - 5.6 - - 8 - - - -
25/06:00am 25.4 CALM 0 0 1006.5 - 5.6 - Partly cloudy 7 - - - -
25/05:57am 25.3 CALM 0 0 1006.5 - 5.6 - Partly cloudy 7 - - - -
25/05:52am 25.3 CALM 0 0 1006.4 - 5.6 - Partly cloudy 9 - - - -
25/05:43am 25.4 CALM 0 0 1006.2 - 5.6 - Partly cloudy 9 - - - -
25/05:37am 25.4 CALM 0 0 1006.2 - 5.6 - Partly cloudy 8 - - - -
25/05:30am 25.4 CALM 0 0 1006.1 - 5.6 - Partly cloudy 6 - - - -
25/05:00am 25.3 CALM 0 0 1005.7 - 5.6 - - 7 - - - -
25/04:30am 25.2 CALM 0 3 1005.4 - 5.6 - Partly cloudy 7 - - - -
25/04:00am 25.8 CALM 0 0 1005.4 - 5.6 - Partly cloudy 5 - - - -
25/03:30am 26.3 CALM 0 0 1005.1 - 5.6 - - 4 - - - -
25/03:14am 26.6 CALM 0 0 1005.1 - 5.6 - Partly cloudy 7 - - - -
25/03:00am 27.0 CALM 0 3 1005.2 - 5.6 - Mostly clear 10 - - - -
25/02:30am 27.0 N 1 4 1005.3 - 5.6 - Partly cloudy 8 - - - -
25/02:08am 27.0 NNW 1 4 1005.3 - 5.6 - Partly cloudy 8 - - - -
25/02:00am 27.0 CALM 0 0 1005.4 - 5.6 - Partly cloudy 8 - - - -
25/01:40am 27.0 CALM 0 0 1005.4 - 5.6 - - 7 - - - -
25/01:30am 27.2 NNW 2 5 1005.6 - 5.6 - - 8 - - - -
25/01:00am 27.0 N 1 3 1005.9 - 5.6 - - 8 - - - -
25/12:30am 27.0 N 3 5 1005.9 - 5.6 - Partly cloudy 9 - - - -
25/12:16am 26.8 CALM 0 0 1006.0 - 5.6 - Partly cloudy 8 - - - -
25/12:00am 26.7 CALM 0 0 1006.0 - 5.6 - Mostly cloudy 7 - - - -
 
Date/Time
EST
Temp

°C
Wind Pressure Rain
since 9am
mm
Weather Cloud Vis
km
Sea
Height
m
Swell
Dir
 
Speed
knots
Gust
knots
hPa Trend Height
m
Period
s
Dir
24/11:56pm 26.8 CALM 0 0 1006.1 - 5.6 - Partly cloudy 7 - - - -
24/11:49pm 26.8 CALM 0 0 1006.1 - 5.6 - Partly cloudy 8 - - - -
24/11:30pm 26.9 CALM 0 0 1006.2 - 5.6 - Partly cloudy 9 - - - -
24/11:00pm 27.3 NW 2 4 1006.4 - 5.6 - Partly cloudy 10 - - - -
24/10:30pm 27.3 N 4 6 1006.3 - 5.6 - Partly cloudy 10 - - - -
24/10:15pm 27.1 N 3 4 1006.3 - 5.6 - Partly cloudy 10 - - - -
24/10:08pm 27.1 N 2 4 1006.4 - 5.6 - Partly cloudy 10 - - - -
24/10:00pm 27.2 NNE 2 4 1006.5 - 5.6 - Partly cloudy 10 - - - -
24/09:55pm 27.3 N 4 6 1006.5 - 5.6 - Partly cloudy 10 - - - -
24/09:30pm 27.3 NNW 5 7 1006.3 - 5.6 - Partly cloudy 10 - - - -
24/09:00pm 27.2 NW 3 5 1006.2 - 5.6 - Mostly clear 10 - - - -
24/08:30pm 27.5 W 3 5 1006.1 - 5.6 - Partly cloudy 10 - - - -
24/08:00pm 28.1 N 1 5 1006.0 - 5.6 - Partly cloudy 10 - - - -
24/07:30pm 28.1 NNW 4 6 1005.6 - 5.6 - Partly cloudy 10 - - - -
24/07:00pm 28.8 NW 5 7 1005.0 - 5.6 - Partly cloudy 10 - - - -
24/06:30pm 29.2 NNW 7 10 1004.7 - 5.6 - Partly cloudy 10 - - - -
24/06:00pm 29.0 NNE 5 9 1004.1 - 5.6 - Partly cloudy 10 - - - -
24/05:30pm 29.4 NE 6 9 1004.0 - 5.6 - Partly cloudy 10 - - - -
24/05:00pm 29.9 ENE 7 10 1003.6 - 5.6 - Partly cloudy 10 - - - -
24/04:30pm 30.4 ENE 7 9 1003.3 - 5.6 - Partly cloudy 10 - - - -
24/04:00pm 30.0 E 6 9 1003.3 - 5.6 - Partly cloudy 10 - - - -
24/03:30pm 28.4 ENE 5 9 1003.6 - 5.6 - Partly cloudy 10 - - - -
24/03:26pm 28.1 NE 6 9 1003.5 - 5.6 - Partly cloudy 10 - - - -
24/03:06pm 27.6 ENE 8 13 1003.5 - 5.4 - Partly cloudy 6 - - - -
24/03:00pm 27.8 NE 9 13 1003.6 - 4.8 Recent precip. Cloudy 10 - - - -
24/02:57pm 27.4 NE 9 11 1003.6 - 4.8 - Partly cloudy 10 - - - -
24/02:35pm 29.0 SE 5 9 1003.6 - 3.6 - Partly cloudy 5 - - - -
24/02:30pm 29.3 SSE 5 8 1003.7 - 0.8 - Cloudy 10 - - - -
24/02:00pm 30.3 ESE 7 9 1003.9 - 0.8 - Partly cloudy 10 - - - -
24/01:30pm 32.6 NW 5 11 1003.9 - 0.8 - Partly cloudy 10 - - - -
24/01:00pm 32.8 N 11 14 1003.8 - 0.8 - Partly cloudy 10 - - - -
24/12:30pm 32.0 NNW 7 12 1004.3 - 0.8 - Partly cloudy 10 - - - -
24/12:14pm 32.1 NNW 8 12 1004.6 - 0.8 - Partly cloudy 10 - - - -
24/12:00pm 30.1 N 6 11 1004.8 - 0.8 Rain Mostly cloudy 3 - - - -
24/11:54am 28.9 NNW 8 13 1005.1 - 0.6 - Partly cloudy 5 - - - -
24/11:30am 31.5 N 9 15 1005.1 - 0.0 - Partly cloudy 10 - - - -
24/11:00am 31.0 N 9 13 1005.4 - 0.0 - Partly cloudy 10 - - - -
24/10:30am 32.7 N 7 11 1005.7 - 0.0 - Partly cloudy 10 - - - -
24/10:00am 30.5 N 8 13 1006.0 - 0.0 - Partly cloudy 10 - - - -
24/09:30am 31.0 WNW 7 10 1006.1 - 0.0 - Partly cloudy 10 - - - -
24/09:00am 30.0 NW 7 12 1006.1 - 3.6 - Cloudy 10 - - - -
24/08:30am 29.7 NNW 8 13 1005.8 - 3.6 - Partly cloudy 10 - - - -
24/08:00am 28.3 NW 5 10 1005.8 - 3.6 - Partly cloudy 10 - - - -
24/07:30am 27.3 WNW 2 5 1005.6 - 3.6 - - 10 - - - -
24/07:00am 25.4 CALM 0 0 1005.5 - 3.6 - - 10 - - - -
24/06:30am 23.4 CALM 0 0 1005.4 - 3.6 - - 10 - - - -
24/06:00am 22.2 CALM 0 0 1005.2 - 3.6 - - 10 - - - -
24/05:30am 21.8 CALM 0 0 1004.8 - 3.6 - - 10 - - - -
24/05:00am 21.5 CALM 0 0 1004.6 - 3.6 - - 10 - - - -
24/04:30am 21.6 CALM 0 0 1004.3 - 3.6 - - 10 - - - -
24/04:00am 21.9 CALM 0 0 1004.1 - 3.6 - - 10 - - - -
24/03:30am 21.8 N 1 4 1004.0 - 3.6 - - 10 - - - -
24/03:00am 22.1 CALM 0 0 1004.0 - 3.6 - - 10 - - - -
24/02:30am 21.9 CALM 0 0 1003.8 - 3.6 - - 10 - - - -
24/02:00am 22.5 CALM 0 0 1004.0 - 3.6 - - 10 - - - -
24/01:30am 22.4 CALM 0 0 1004.0 - 3.6 - - 10 - - - -
24/01:00am 22.7 CALM 0 0 1004.1 - 3.6 - - 10 - - - -
24/12:30am 22.8 CALM 0 0 1004.4 - 3.6 - - 10 - - - -
24/12:00am 23.2 CALM 0 0 1004.6 - 3.6 - - 10 - - - -
 
Date/Time
EST
Temp

°C
Wind Pressure Rain
since 9am
mm
Weather Cloud Vis
km
Sea
Height
m
Swell
Dir
 
Speed
knots
Gust
knots
hPa Trend Height
m
Period
s
Dir
23/11:30pm 23.2 ESE 3 4 1004.8 - 3.6 - - 10 - - - -
23/11:00pm 23.7 NNW 2 4 1004.9 - 3.6 - - 10 - - - -
23/10:30pm 23.7 ESE 3 5 1005.1 - 3.6 - - 10 - - - -

Other Formats:

Comma delimited format used in spreadsheet applications
http://www.bom.gov.au/fwo/IDQ60701/IDQ60701.94370.axf

JavaScript Object Notation format (JSON) in row-major order
http://www.bom.gov.au/fwo/IDQ60701/IDQ60701.94370.json